Time;durP1;ratioP1;P1;durP2;ratioP2;P2;SDS_P1;SDS_P2;PMS_P1;PMS_P2;Temp;Humidity;BMP_temperature;BMP_pressure;BME280_temperature;BME280_humidity;BME280_pressure;Samples;Min_cycle;Max_cycle;Signal;HPM_P1;HPM_P2
2022/03/19 00:00:03;;;;;;;43.30;22.77;;;;;;;-3.90;53.35;101389.86;2125384;84;21350;-84
2022/03/19 00:03:06;;;;;;;44.67;21.13;;;;;;;-3.86;53.36;101393.66;2105538;84;21010;-84
2022/03/19 00:06:07;;;;;;;38.97;18.67;;;;;;;-3.85;53.37;101386.53;2112411;84;21066;-84
2022/03/19 00:09:07;;;;;;;46.63;20.33;;;;;;;-3.97;53.22;101389.94;2117329;84;20919;-84
2022/03/19 00:12:08;;;;;;;45.17;20.13;;;;;;;-4.13;53.42;101383.90;2110244;84;20995;-83
2022/03/19 00:15:08;;;;;;;44.90;20.90;;;;;;;-4.14;53.80;101390.11;2117658;83;20994;-84
2022/03/19 00:18:09;;;;;;;41.67;19.13;;;;;;;-4.12;54.07;101388.27;2114197;83;20990;-84
2022/03/19 00:21:10;;;;;;;44.57;20.23;;;;;;;-4.13;54.17;101385.55;2118881;84;21329;-83
2022/03/19 00:24:10;;;;;;;47.53;20.10;;;;;;;-4.18;54.16;101386.31;2119693;84;20958;-83
2022/03/19 00:27:11;;;;;;;48.03;19.17;;;;;;;-4.26;54.23;101382.02;2107024;83;21112;-82
2022/03/19 00:30:11;;;;;;;47.40;18.87;;;;;;;-4.31;54.49;101378.06;2115137;83;20990;-84
2022/03/19 00:33:12;;;;;;;45.07;19.63;;;;;;;-4.33;54.79;101366.78;2118401;83;21021;-84
2022/03/19 00:36:13;;;;;;;44.40;20.27;;;;;;;-4.33;55.04;101369.33;2118729;84;21313;-83
2022/03/19 00:39:13;;;;;;;217.10;36.97;;;;;;;-4.34;55.16;101368.39;2111918;83;21009;-84
2022/03/19 00:42:14;;;;;;;75.90;22.67;;;;;;;-4.36;55.29;101357.48;2112590;83;20954;-84
2022/03/19 00:45:14;;;;;;;54.63;20.80;;;;;;;-4.44;55.29;101359.19;2119061;84;21441;-84
2022/03/19 00:48:15;;;;;;;46.90;20.00;;;;;;;-4.47;55.38;101356.67;2111385;83;21030;-83
2022/03/19 00:51:15;;;;;;;43.77;18.90;;;;;;;-4.51;55.51;101355.06;2114522;84;20958;-84
2022/03/19 00:54:16;;;;;;;51.07;21.23;;;;;;;-4.52;55.98;101355.80;2110179;84;20994;-84
2022/03/19 00:57:16;;;;;;;62.67;21.07;;;;;;;-4.51;56.23;101348.69;2114665;84;20970;-84
2022/03/19 01:00:16;;;;;;;53.23;22.57;;;;;;;-4.44;56.19;101353.19;2119110;84;21028;-84
2022/03/19 01:03:17;;;;;;;89.77;34.50;;;;;;;-4.44;56.27;101359.56;2119513;83;20970;-84
2022/03/19 01:06:17;;;;;;;73.13;30.50;;;;;;;-4.47;56.57;101369.42;2119280;84;21445;-82
2022/03/19 01:09:18;;;;;;;62.10;25.07;;;;;;;-4.50;56.38;101373.44;2119328;84;21430;-84
2022/03/19 01:12:20;;;;;;;64.33;26.07;;;;;;;-4.54;56.39;101368.74;2116222;84;21354;-83
2022/03/19 01:15:20;;;;;;;59.33;23.87;;;;;;;-4.68;56.47;101367.95;2114672;84;21410;-83
2022/03/19 01:18:21;;;;;;;63.33;25.13;;;;;;;-4.80;56.70;101368.77;2121101;84;21295;-84
2022/03/19 01:21:21;;;;;;;67.73;26.03;;;;;;;-4.83;56.92;101371.88;2118860;83;21030;-84
2022/03/19 01:24:22;;;;;;;72.63;29.07;;;;;;;-4.80;56.99;101368.77;2096457;84;20991;-84
2022/03/19 01:27:22;;;;;;;62.53;25.23;;;;;;;-4.80;57.05;101368.77;2091515;84;20979;-83
2022/03/19 01:30:24;;;;;;;64.07;26.87;;;;;;;-4.89;56.85;101372.83;2090597;84;21424;-83
2022/03/19 01:33:24;;;;;;;63.80;26.53;;;;;;;-5.02;56.91;101366.72;2090796;85;21083;-83
2022/03/19 01:36:25;;;;;;;56.27;25.00;;;;;;;-5.04;57.28;101369.46;2104355;84;21030;-84
2022/03/19 01:39:25;;;;;;;56.27;24.43;;;;;;;-5.03;57.20;101365.28;2118400;84;21444;-83
2022/03/19 01:42:26;;;;;;;58.13;25.63;;;;;;;-5.06;57.35;101367.48;2096925;84;20952;-84
2022/03/19 01:45:26;;;;;;;61.23;25.83;;;;;;;-5.09;57.41;101356.58;2094550;84;20919;-84
2022/03/19 01:48:26;;;;;;;59.83;23.47;;;;;;;-5.10;57.48;101364.05;2107509;84;20940;-83
2022/03/19 01:51:30;;;;;;;56.23;24.70;;;;;;;-5.08;57.59;101360.03;2109380;84;20951;-84
2022/03/19 01:54:30;;;;;;;57.77;24.17;;;;;;;-5.07;57.53;101347.84;2100718;84;21003;-83
2022/03/19 01:57:31;;;;;;;60.67;23.80;;;;;;;-5.19;57.44;101344.45;2113336;83;20947;-83
2022/03/19 02:00:31;;;;;;;59.07;22.90;;;;;;;-5.30;57.72;101338.48;2116631;84;21085;-83
2022/03/19 02:03:32;;;;;;;50.27;21.57;;;;;;;-5.32;57.99;101338.67;2119570;84;21009;-84
2022/03/19 02:06:32;;;;;;;53.93;22.77;;;;;;;-5.30;58.17;101346.48;2125488;84;21030;-83
2022/03/19 02:09:33;;;;;;;57.23;24.50;;;;;;;-5.22;58.50;101347.89;2122487;84;20991;-83
2022/03/19 02:12:33;;;;;;;61.07;26.37;;;;;;;-5.11;58.58;101345.31;2112075;83;21427;-82
2022/03/19 02:15:34;;;;;;;57.67;25.67;;;;;;;-5.02;58.55;101341.25;2118610;84;21352;-83
2022/03/19 02:18:34;;;;;;;77.93;34.90;;;;;;;-4.96;58.57;101347.40;2117794;84;21034;-83
2022/03/19 02:21:35;;;;;;;68.60;28.13;;;;;;;-4.98;58.52;101353.59;2117933;84;21373;-83
2022/03/19 02:27:55;;;;;;;74.80;26.17;;;;;;;-5.09;58.14;101343.84;2120573;83;21034;-83
2022/03/19 02:30:55;;;;;;;70.73;28.60;;;;;;;-5.23;58.52;101343.53;2119044;84;21042;-83
2022/03/19 02:33:56;;;;;;;64.83;27.47;;;;;;;-5.26;58.71;101341.00;2112742;84;20947;-83
2022/03/19 02:36:56;;;;;;;55.37;24.77;;;;;;;-5.30;58.56;101338.84;2119419;83;21017;-83
2022/03/19 02:39:57;;;;;;;57.23;25.40;;;;;;;-5.32;58.62;101337.77;2125175;84;21001;-84
2022/03/19 02:42:57;;;;;;;55.47;25.03;;;;;;;-5.34;58.83;101331.59;2125864;84;20978;-84
2022/03/19 02:45:58;;;;;;;57.33;25.80;;;;;;;-2.41;89.07;101326.02;2116524;84;20935;-84
2022/03/19 02:48:58;;;;;;;65.97;26.93;;;;;;;-1.66;61.52;101336.69;2114113;84;21353;-84
2022/03/19 02:51:59;;;;;;;63.30;27.37;;;;;;;-2.48;57.35;101336.37;2117812;84;21367;-84
2022/03/19 02:54:59;;;;;;;71.73;30.03;;;;;;;-3.29;56.12;101340.67;2115742;84;21038;-83
2022/03/19 02:58:00;;;;;;;54.03;26.33;;;;;;;-3.90;56.24;101343.93;2105402;84;20947;-84
2022/03/19 03:01:00;;;;;;;54.87;24.47;;;;;;;-4.31;56.66;101343.27;2093776;84;21038;-82
2022/03/19 03:04:01;;;;;;;66.10;28.10;;;;;;;-4.59;57.17;101348.20;2114254;84;20990;-84
2022/03/19 03:07:01;;;;;;;74.43;27.13;;;;;;;-4.80;57.37;101340.73;2118489;84;21010;-82
2022/03/19 03:10:02;;;;;;;63.13;27.50;;;;;;;-4.93;57.70;101348.65;2112818;84;20979;-83
2022/03/19 03:13:02;;;;;;;67.60;27.03;;;;;;;-5.15;57.68;101339.34;2113722;84;21434;-83
2022/03/19 03:16:04;;;;;;;61.00;25.93;;;;;;;-5.29;57.93;101351.75;2118137;84;21388;-83
2022/03/19 03:19:04;;;;;;;59.10;27.53;;;;;;;-5.38;58.24;101345.61;2095266;84;21006;-86
2022/03/19 03:22:05;;;;;;;60.77;26.07;;;;;;;-5.40;58.73;101348.34;2095802;84;20955;-82
2022/03/19 03:25:05;;;;;;;76.07;27.03;;;;;;;-4.59;62.38;101344.75;2119244;84;21025;-81
2022/03/19 03:28:06;;;;;;;65.83;27.87;;;;;;;-4.64;60.64;101349.34;2103015;84;20998;-82
2022/03/19 03:31:07;;;;;;;92.47;30.53;;;;;;;-4.82;59.88;101346.03;2103228;84;21299;-82
2022/03/19 03:34:07;;;;;;;69.83;29.17;;;;;;;-4.87;59.97;101343.33;2112130;84;20997;-81
2022/03/19 03:37:08;;;;;;;68.23;27.57;;;;;;;-4.90;60.17;101345.54;2104396;84;21002;-82
2022/03/19 03:40:09;;;;;;;70.07;28.83;;;;;;;-4.94;59.70;101344.66;2112348;84;21976;-82
2022/03/19 03:43:09;;;;;;;71.23;30.63;;;;;;;-4.96;59.72;101344.85;2112739;84;21047;-81
2022/03/19 03:46:10;;;;;;;70.93;29.03;;;;;;;-4.93;59.76;101355.38;2118755;84;21014;-81
2022/03/19 03:49:10;;;;;;;64.83;28.90;;;;;;;-4.91;60.09;101351.00;2117501;84;20990;-80
2022/03/19 03:52:12;;;;;;;67.63;29.40;;;;;;;-4.83;60.06;101356.95;2117211;84;21346;-80
2022/03/19 03:55:13;;;;;;;60.23;27.63;;;;;;;-4.80;59.76;101353.47;2099318;84;21045;-83
2022/03/19 03:58:13;;;;;;;73.80;31.07;;;;;;;-3.71;84.25;101352.30;2109852;83;21435;-83
2022/03/19 04:01:14;;;;;;;72.67;31.97;;;;;;;-2.84;60.23;101356.08;2108880;83;21393;-82
2022/03/19 04:04:14;;;;;;;84.97;35.03;;;;;;;-3.64;57.74;101355.67;2118921;84;21021;-81
2022/03/19 04:07:15;;;;;;;68.97;31.03;;;;;;;-4.26;57.56;101359.97;2110633;84;20946;-82
2022/03/19 04:10:15;;;;;;;77.33;32.40;;;;;;;-4.31;70.67;101358.93;2118131;84;20978;-81
2022/03/19 04:13:16;;;;;;;59.77;28.20;;;;;;;-1.30;80.97;101354.78;2119619;83;20967;-82
2022/03/19 04:16:19;;;;;;;62.33;28.30;;;;;;;1.24;72.50;101348.30;2126438;84;20983;-82
2022/03/19 04:19:20;;;;;;;67.60;27.93;;;;;;;2.65;70.10;101348.82;2113129;84;21085;-82
2022/03/19 04:22:20;;;;;;;73.40;35.00;;;;;;;3.63;58.78;101344.77;2115073;83;21342;-84
2022/03/19 04:25:21;;;;;;;77.63;37.00;;;;;;;4.55;51.80;101347.23;2114402;84;21011;-84
2022/03/19 04:28:21;;;;;;;84.67;37.40;;;;;;;2.37;47.16;101350.36;2118778;84;21330;-84
2022/03/19 04:31:22;;;;;;;70.00;33.67;;;;;;;0.46;47.13;101354.86;2117678;84;21405;-83
2022/03/19 04:34:23;;;;;;;71.87;33.83;;;;;;;-0.91;48.04;101357.23;2115327;84;20990;-82
2022/03/19 04:37:23;;;;;;;90.30;33.07;;;;;;;-1.96;48.87;101362.66;2112839;84;20998;-84
2022/03/19 04:40:24;;;;;;;71.93;34.00;;;;;;;-2.80;49.84;101365.87;2119124;84;20998;-83
2022/03/19 04:43:24;;;;;;;79.30;35.87;;;;;;;-3.45;51.34;101375.17;2120380;84;21044;-83
2022/03/19 04:46:25;;;;;;;94.37;39.37;;;;;;;-3.87;52.47;101382.54;2110882;84;20989;-82
2022/03/19 04:49:25;;;;;;;97.20;42.13;;;;;;;-4.28;53.99;101388.59;2111219;83;20986;-82
2022/03/19 04:52:26;;;;;;;92.17;38.60;;;;;;;-4.58;54.49;101385.70;2112055;83;20990;-83
2022/03/19 04:55:26;;;;;;;88.27;37.50;;;;;;;-4.75;54.86;101398.58;2116085;83;21440;-83
2022/03/19 04:58:27;;;;;;;84.83;36.77;;;;;;;-4.94;55.43;101395.61;2100337;84;20998;-83
2022/03/19 05:01:27;;;;;;;93.70;40.10;;;;;;;-5.10;55.87;101397.16;2103984;83;21396;-84
2022/03/19 05:04:27;;;;;;;96.63;42.27;;;;;;;-5.21;56.40;101400.99;2103751;84;20966;-85
2022/03/19 05:07:35;;;;;;;88.00;37.10;;;;;;;-5.27;56.71;101403.75;2091830;84;31751;-83
2022/03/19 05:13:53;;;;;;;79.37;34.67;;;;;;;-5.33;56.81;101409.41;2115922;84;21105;-82
2022/03/19 05:16:53;;;;;;;81.33;33.80;;;;;;;-5.39;57.06;101407.44;2103405;84;21034;-83
2022/03/19 05:19:53;;;;;;;73.33;33.23;;;;;;;-5.43;57.53;101404.36;2105941;84;21427;-83
2022/03/19 05:22:54;;;;;;;73.27;34.37;;;;;;;-5.38;57.85;101410.52;2091784;84;21050;-84
2022/03/19 05:25:54;;;;;;;80.07;36.20;;;;;;;-5.38;57.89;101421.98;2096727;84;20982;-83
2022/03/19 05:28:55;;;;;;;83.70;36.40;;;;;;;-5.33;58.08;101423.41;2101458;84;21019;-84
2022/03/19 05:31:56;;;;;;;76.40;34.40;;;;;;;-5.20;58.29;101421.58;2097532;84;21102;-82
2022/03/19 05:34:56;;;;;;;72.77;36.03;;;;;;;-5.10;58.45;101412.06;2115824;84;20971;-81
2022/03/19 05:37:59;;;;;;;83.23;34.87;;;;;;;-4.95;58.46;101411.62;2112426;83;20963;-83
2022/03/19 05:40:59;;;;;;;86.17;34.07;;;;;;;-4.83;58.33;101410.45;2106545;84;21058;-85
2022/03/19 05:43:59;;;;;;;75.90;33.87;;;;;;;-4.74;58.49;101411.86;2101892;84;20995;-84
2022/03/19 05:47:00;;;;;;;82.03;35.30;;;;;;;-4.62;58.73;101419.60;2113721;84;21022;-83
2022/03/19 05:50:00;;;;;;;80.70;38.37;;;;;;;-4.40;58.88;101417.44;2101242;84;21034;-84
2022/03/19 05:53:01;;;;;;;66.93;30.97;;;;;;;0.82;77.03;101402.30;2090428;84;21014;-82
2022/03/19 05:56:02;;;;;;;85.83;29.13;;;;;;;2.70;55.22;101399.10;2112273;84;21042;-80
2022/03/19 05:59:03;;;;;;;64.77;30.57;;;;;;;1.17;51.33;101402.92;2115401;84;21037;-84
2022/03/19 06:02:05;;;;;;;62.87;29.23;;;;;;;-0.03;51.17;101407.70;2114800;84;21014;-83
2022/03/19 06:05:06;;;;;;;72.63;31.87;;;;;;;-0.78;51.81;101409.89;2116141;84;21099;-83
2022/03/19 06:08:06;;;;;;;106.87;36.63;;;;;;;-1.19;52.66;101414.78;2111403;84;21306;-83
2022/03/19 06:11:07;;;;;;;70.57;33.13;;;;;;;-1.34;52.70;101422.23;2122500;84;20971;-82
2022/03/19 06:14:07;;;;;;;71.80;35.17;;;;;;;-1.36;53.43;101423.73;2113464;84;21038;-83
2022/03/19 06:17:08;;;;;;;74.67;35.33;;;;;;;-1.38;53.82;101424.87;2111119;83;21322;-82
2022/03/19 06:20:08;;;;;;;106.77;37.00;;;;;;;-1.33;53.65;101430.07;2119307;84;21397;-82
2022/03/19 06:23:09;;;;;;;105.40;38.07;;;;;;;-1.24;53.80;101433.92;2124828;83;20959;-83
2022/03/19 06:26:09;;;;;;;98.83;39.27;;;;;;;-1.14;53.73;101435.73;2119053;83;21002;-83
2022/03/19 06:29:10;;;;;;;78.17;38.23;;;;;;;-0.96;53.50;101436.27;2117550;84;21003;-83
2022/03/19 06:32:10;;;;;;;93.63;39.03;;;;;;;-0.80;53.45;101435.77;2113435;84;20986;-82
2022/03/19 06:37:19;;;;;;;93.13;39.87;;;;;;;-0.57;53.37;101431.95;2117315;83;20943;-81
2022/03/19 06:38:13;;;;;;;84.63;38.53;;;;;;;-0.37;53.49;101439.91;2109942;84;21065;-82
2022/03/19 06:41:14;;;;;;;72.73;35.43;;;;;;;-0.11;53.54;101441.11;2116881;84;20955;-82
2022/03/19 06:44:14;;;;;;;72.53;35.50;;;;;;;0.17;53.77;101439.52;2118250;84;20998;-82
2022/03/19 06:47:15;;;;;;;74.97;35.43;;;;;;;0.50;53.15;101435.33;2111857;84;21038;-82
2022/03/19 06:50:16;;;;;;;69.90;37.33;;;;;;;0.78;52.71;101443.91;2125808;84;21409;-81
2022/03/19 06:53:17;;;;;;;97.07;39.53;;;;;;;1.01;51.91;101436.66;2110964;84;20993;-81
2022/03/19 06:56:18;;;;;;;73.50;34.90;;;;;;;1.28;51.12;101436.57;2104063;84;20979;-82
2022/03/19 06:59:19;;;;;;;71.67;35.17;;;;;;;1.48;50.33;101438.73;2118255;83;21063;-81
2022/03/19 07:02:19;;;;;;;70.00;34.37;;;;;;;1.79;49.01;101434.26;2118967;84;21437;-81
2022/03/19 07:05:20;;;;;;;143.77;41.57;;;;;;;2.13;48.34;101441.05;2121006;83;20995;-81
2022/03/19 07:08:20;;;;;;;75.73;36.33;;;;;;;2.43;48.44;101429.88;2119743;84;20979;-81
2022/03/19 07:11:21;;;;;;;73.83;33.53;;;;;;;2.74;47.55;101439.46;2119468;84;20991;-83
2022/03/19 07:14:22;;;;;;;136.23;79.27;;;;;;;3.09;46.89;101435.04;2112088;84;20967;-83
2022/03/19 07:17:22;;;;;;;76.50;37.20;;;;;;;3.29;46.32;101431.13;2109589;84;21232;-82
2022/03/19 07:20:23;;;;;;;61.67;31.77;;;;;;;3.55;45.50;101431.98;2118051;84;20975;-84
2022/03/19 07:23:23;;;;;;;53.93;29.23;;;;;;;3.78;44.41;101437.30;2120050;84;20983;-84
2022/03/19 07:26:25;;;;;;;59.77;30.33;;;;;;;4.02;43.35;101442.22;2118589;84;21045;-83
2022/03/19 07:29:25;;;;;;;52.40;25.87;;;;;;;4.29;43.20;101439.60;2112342;84;21492;-84
2022/03/19 07:32:25;;;;;;;51.07;26.47;;;;;;;4.49;42.02;101446.35;2116408;84;21033;-81
2022/03/19 07:35:26;;;;;;;39.57;23.77;;;;;;;4.62;41.20;101443.92;2116558;84;20986;-82
2022/03/19 07:38:27;;;;;;;42.97;23.27;;;;;;;4.73;39.40;101450.81;2120218;83;20978;-82
2022/03/19 07:41:45;;;;;;;36.60;20.43;;;;;;;4.96;38.59;101446.48;2123490;84;21034;-83
2022/03/19 07:44:46;;;;;;;36.83;20.20;;;;;;;5.21;39.59;101451.45;2104964;83;20994;-83
2022/03/19 07:47:46;;;;;;;30.53;18.53;;;;;;;5.37;37.71;101448.30;2111300;83;21314;-83
2022/03/19 07:50:47;;;;;;;31.70;17.60;;;;;;;5.61;36.58;101442.72;2127146;83;20978;-84
2022/03/19 07:53:47;;;;;;;28.10;16.03;;;;;;;5.83;36.03;101445.16;2123793;84;20927;-82
2022/03/19 07:56:51;;;;;;;25.63;17.00;;;;;;;5.91;35.74;101442.37;2117898;84;21014;-83
2022/03/19 07:59:50;;;;;;;27.63;16.10;;;;;;;5.94;35.64;101451.66;2117624;84;21038;-82
2022/03/19 08:02:51;;;;;;;28.20;16.17;;;;;;;6.13;35.65;101447.81;2110110;84;21013;-83
2022/03/19 08:05:51;;;;;;;27.20;16.90;;;;;;;6.35;35.27;101445.53;2117019;84;20959;-81
2022/03/19 08:08:52;;;;;;;42.30;15.33;;;;;;;6.60;35.22;101446.84;2110796;83;21240;-82
2022/03/19 08:11:52;;;;;;;20.37;14.17;;;;;;;6.75;34.66;101444.78;2110746;84;21261;-83
2022/03/19 08:14:53;;;;;;;25.33;14.47;;;;;;;6.80;32.67;101439.11;2111382;84;20990;-82
2022/03/19 08:17:53;;;;;;;146.33;19.40;;;;;;;6.78;32.51;101446.30;2122507;84;21022;-83
2022/03/19 08:20:55;;;;;;;25.57;13.90;;;;;;;6.76;32.51;101443.59;2115166;84;21014;-82
2022/03/19 08:23:56;;;;;;;24.47;12.83;;;;;;;6.88;32.53;101444.42;2116448;84;21341;-82
2022/03/19 08:26:56;;;;;;;23.30;13.37;;;;;;;6.94;31.38;101444.88;2117869;84;21045;-81
2022/03/19 08:29:57;;;;;;;18.47;13.40;;;;;;;6.98;31.44;101444.28;2117800;84;20982;-81
2022/03/19 08:32:57;;;;;;;53.80;16.00;;;;;;;6.99;30.53;101440.89;2112221;83;21984;-84
2022/03/19 08:35:57;;;;;;;21.60;13.43;;;;;;;7.10;31.30;101449.40;2122040;84;20963;-82
2022/03/19 08:42:09;;;;;;;24.07;13.00;;;;;;;7.14;29.70;101447.91;2113280;84;21086;-81
2022/03/19 08:45:09;;;;;;;16.83;13.03;;;;;;;7.18;29.79;101438.22;2117500;84;21449;-82
2022/03/19 08:48:10;;;;;;;17.90;12.63;;;;;;;7.16;29.07;101447.61;2109243;84;21436;-84
2022/03/19 08:54:30;;;;;;;20.10;13.27;;;;;;;7.52;29.88;101441.34;2120833;84;21552;-81
2022/03/19 08:57:32;;;;;;;38.80;14.70;;;;;;;7.63;29.27;101442.53;2105932;83;21366;-81
2022/03/19 09:00:33;;;;;;;27.10;12.47;;;;;;;7.61;29.09;101445.43;2125381;83;21049;-82
2022/03/19 09:03:34;;;;;;;138.70;17.47;;;;;;;7.72;29.16;101443.92;2118436;84;21001;-80
2022/03/19 09:06:34;;;;;;;22.47;13.23;;;;;;;7.83;28.78;101446.84;2120028;83;21072;-81
2022/03/19 09:09:35;;;;;;;43.77;12.93;;;;;;;7.73;28.33;101447.02;2119432;84;21057;-80
2022/03/19 09:12:36;;;;;;;22.07;12.13;;;;;;;7.74;28.82;101444.52;2120835;84;21022;-84
2022/03/19 09:15:39;;;;;;;24.70;12.83;;;;;;;7.79;28.93;101444.81;2117519;84;21445;-80
2022/03/19 09:18:40;;;;;;;25.60;12.70;;;;;;;7.79;28.70;101440.92;2119060;84;21057;-83
2022/03/19 09:21:41;;;;;;;17.20;11.70;;;;;;;7.83;28.47;101448.14;2118374;84;20987;-84
2022/03/19 09:24:42;;;;;;;17.47;11.40;;;;;;;7.85;27.88;101445.24;2117727;83;21038;-84
2022/03/19 09:27:42;;;;;;;16.63;11.20;;;;;;;7.92;27.61;101456.53;2118297;84;21054;-84
2022/03/19 09:30:45;;;;;;;24.37;12.30;;;;;;;7.95;27.34;101443.73;2094846;84;21057;-83
2022/03/19 09:33:46;;;;;;;22.60;12.97;;;;;;;8.04;27.84;101458.61;2118601;84;21057;-82
2022/03/19 09:36:46;;;;;;;14.50;11.23;;;;;;;8.02;26.64;101454.12;2119732;84;21022;-82
2022/03/19 09:39:49;;;;;;;16.37;10.87;;;;;;;7.98;26.88;101454.33;2118355;83;21420;-80
2022/03/19 09:42:49;;;;;;;14.63;10.63;;;;;;;8.02;27.41;101452.41;2118797;84;21500;-80
2022/03/19 09:45:50;;;;;;;14.97;11.13;;;;;;;8.15;27.34;101457.59;2118967;84;20998;-80
2022/03/19 09:48:53;;;;;;;14.73;10.90;;;;;;;8.16;26.51;101451.98;2119492;84;20980;-81
2022/03/19 09:51:55;;;;;;;15.70;10.90;;;;;;;8.16;27.13;101452.88;2120655;84;21034;-83
2022/03/19 09:54:56;;;;;;;13.77;10.00;;;;;;;8.21;27.22;101447.97;2120971;83;21415;-82
2022/03/19 09:57:56;;;;;;;18.37;10.80;;;;;;;8.23;27.12;101445.06;2120067;84;20998;-82
2022/03/19 10:00:57;;;;;;;17.03;11.00;;;;;;;8.34;26.86;101445.76;2118323;84;21054;-81
2022/03/19 10:03:57;;;;;;;16.60;10.47;;;;;;;8.49;26.46;101448.00;2096762;84;21353;-83
2022/03/19 10:10:18;;;;;;;26.17;10.17;;;;;;;8.41;25.55;101457.95;2109846;84;21070;-83
2022/03/19 10:13:18;;;;;;;16.83;9.83;;;;;;;8.39;25.38;101458.66;2120576;84;21071;-83
2022/03/19 10:16:19;;;;;;;13.43;9.53;;;;;;;8.33;25.08;101465.68;2119245;83;20943;-83
2022/03/19 10:19:20;;;;;;;16.33;9.83;;;;;;;8.37;25.23;101452.05;2111336;84;20987;-85
2022/03/19 10:22:20;;;;;;;13.47;10.80;;;;;;;8.49;25.43;101454.11;2109569;84;20931;-86
2022/03/19 10:25:21;;;;;;;17.57;10.80;;;;;;;8.49;25.11;101439.80;2101618;83;20987;-84
2022/03/19 10:28:21;;;;;;;15.93;11.30;;;;;;;8.51;25.57;101439.48;2100567;84;21050;-83
2022/03/19 10:31:22;;;;;;;14.10;10.03;;;;;;;8.52;25.83;101440.37;2097413;84;21060;-86
2022/03/19 10:34:22;;;;;;;66.87;12.60;;;;;;;8.50;24.92;101436.78;2109401;84;21009;-84
2022/03/19 10:37:23;;;;;;;13.63;9.73;;;;;;;8.42;24.91;101434.11;2115319;84;20994;-84
2022/03/19 10:40:23;;;;;;;14.43;9.37;;;;;;;8.60;25.35;101428.33;2101442;84;21037;-84
2022/03/19 10:43:24;;;;;;;11.63;9.27;;;;;;;8.83;24.97;101439.27;2116042;84;21006;-84
2022/03/19 10:46:24;;;;;;;17.07;11.87;;;;;;;8.91;24.66;101435.41;2119822;83;20935;-84
2022/03/19 10:49:25;;;;;;;19.87;10.80;;;;;;;8.97;24.49;101420.55;2120158;84;20947;-86
2022/03/19 10:52:25;;;;;;;22.00;10.50;;;;;;;9.04;25.06;101416.19;2111754;84;21264;-87
2022/03/19 10:55:26;;;;;;;31.63;10.77;;;;;;;9.03;24.43;101419.60;2117185;84;20966;-85
2022/03/19 10:58:26;;;;;;;17.67;10.53;;;;;;;8.99;24.64;101415.02;2122837;84;21030;-86
2022/03/19 11:01:27;;;;;;;14.33;9.93;;;;;;;8.99;24.57;101408.11;2124716;84;21389;-87
2022/03/19 11:04:27;;;;;;;51.43;12.90;;;;;;;9.11;24.86;101415.73;2117149;84;21022;-83
2022/03/19 11:07:28;;;;;;;24.13;10.97;;;;;;;9.14;24.24;101415.92;2123826;84;20946;-85
2022/03/19 11:10:28;;;;;;;24.83;11.47;;;;;;;9.14;24.49;101410.70;2117708;84;21452;-83
2022/03/19 11:13:30;;;;;;;18.67;10.73;;;;;;;9.16;24.65;101411.69;2125735;84;20966;-84
2022/03/19 11:16:31;;;;;;;67.23;12.47;;;;;;;9.14;23.78;101411.60;2125795;84;21035;-84
2022/03/19 11:19:31;;;;;;;17.80;11.33;;;;;;;9.10;24.34;101404.82;2124881;84;21049;-86
2022/03/19 11:22:39;;;;;;;18.20;11.53;;;;;;;9.21;24.25;101402.03;2118359;84;21049;-85
2022/03/19 11:25:34;;;;;;;15.17;10.87;;;;;;;9.20;23.87;101392.82;2109573;84;21401;-82
2022/03/19 11:28:35;;;;;;;18.17;11.30;;;;;;;9.23;23.77;101385.17;2122961;84;21028;-85
2022/03/19 11:31:35;;;;;;;19.27;11.37;;;;;;;9.24;24.10;101389.17;2116988;84;21052;-84
2022/03/19 11:34:36;;;;;;;16.90;10.77;;;;;;;9.23;23.73;101385.17;2124829;84;20975;-84
2022/03/19 11:37:37;;;;;;;20.20;11.53;;;;;;;9.32;23.50;101387.41;2125443;84;21385;-82
2022/03/19 11:40:37;;;;;;;17.97;11.17;;;;;;;9.42;24.05;101377.59;2125361;84;21077;-85
2022/03/19 11:43:37;;;;;;;18.50;11.33;;;;;;;9.56;23.68;101378.41;2112754;84;21053;-81
2022/03/19 11:46:40;;;;;;;21.47;12.07;;;;;;;9.62;23.81;101375.23;2095671;84;20983;-82
2022/03/19 11:49:40;;;;;;;16.23;12.47;;;;;;;9.70;23.97;101368.73;2124590;84;21429;-83
2022/03/19 11:52:41;;;;;;;27.63;12.40;;;;;;;9.71;23.06;101371.43;2123684;84;20998;-82
2022/03/19 11:55:42;;;;;;;24.47;15.23;;;;;;;9.64;23.57;101376.22;2124207;84;20994;-82
2022/03/19 11:58:43;;;;;;;31.37;17.50;;;;;;;9.70;23.69;101364.83;2121217;84;21074;-81
2022/03/19 12:01:43;;;;;;;15.33;11.90;;;;;;;9.71;24.02;101373.14;2118519;84;21092;-83
2022/03/19 12:04:47;;;;;;;23.00;13.27;;;;;;;9.70;23.91;101361.81;2120239;84;21260;-81
2022/03/19 12:07:50;;;;;;;18.12;11.00;;;;;;;9.65;23.32;101357.16;2118820;84;21038;-82
2022/03/19 12:10:54;;;;;;;15.07;9.93;;;;;;;9.60;23.89;101355.59;2118903;83;21057;-81
2022/03/19 12:13:53;;;;;;;15.27;10.70;;;;;;;9.69;23.31;101361.32;2118503;84;21497;-82
2022/03/19 12:16:53;;;;;;;31.73;12.53;;;;;;;9.55;23.25;101357.95;2119949;84;20998;-82
2022/03/19 12:19:54;;;;;;;19.90;10.27;;;;;;;9.62;23.72;101354.38;2118610;84;21054;-86
2022/03/19 12:22:55;;;;;;;13.40;10.57;;;;;;;9.75;23.57;101356.44;2118171;84;21034;-85
2022/03/19 12:25:55;;;;;;;17.57;10.30;;;;;;;9.80;23.04;101360.61;2118473;84;21421;-86
2022/03/19 12:28:56;;;;;;;31.33;10.90;;;;;;;9.76;22.86;101363.86;2119901;83;21030;-85
2022/03/19 12:31:56;;;;;;;13.07;10.40;;;;;;;9.70;23.16;101353.98;2118359;84;20979;-86
2022/03/19 12:34:57;;;;;;;21.97;15.50;;;;;;;9.68;22.61;101353.41;2117571;84;20986;-84
2022/03/19 12:37:58;;;;;;;52.47;13.83;;;;;;;9.69;23.08;101365.23;2119094;84;21062;-84
2022/03/19 12:44:17;;;;;;;16.97;11.23;;;;;;;9.45;22.36;101346.48;2119839;84;21042;-82
2022/03/19 12:47:19;;;;;;;16.90;9.70;;;;;;;9.47;22.52;101351.38;2119904;84;20981;-81
2022/03/19 12:50:20;;;;;;;11.43;8.77;;;;;;;9.59;22.60;101349.89;2120882;84;20999;-82
2022/03/19 12:53:20;;;;;;;13.40;10.43;;;;;;;9.65;21.67;101355.85;2119209;84;21386;-82
2022/03/19 12:56:21;;;;;;;21.47;10.13;;;;;;;9.44;22.54;101360.73;2118792;83;21338;-81
2022/03/19 12:59:21;;;;;;;14.47;9.93;;;;;;;9.38;22.73;101350.86;2122644;84;21057;-82
2022/03/19 13:02:23;;;;;;;24.20;12.53;;;;;;;9.45;22.57;101342.98;2103449;85;21045;-81
2022/03/19 13:05:23;;;;;;;16.37;11.13;;;;;;;9.45;22.77;101345.58;2111019;84;21070;-81
2022/03/19 13:08:24;;;;;;;23.17;14.53;;;;;;;9.46;23.19;101346.97;2116427;84;20982;-82
2022/03/19 13:11:24;;;;;;;21.70;12.10;;;;;;;9.47;22.80;101343.55;2116480;84;21034;-81
2022/03/19 13:14:25;;;;;;;15.50;10.50;;;;;;;9.47;22.65;101347.87;2123651;84;21042;-82
2022/03/19 13:17:26;;;;;;;16.73;10.63;;;;;;;9.42;23.19;101342.40;2116582;84;21026;-82
2022/03/19 13:20:27;;;;;;;21.20;12.00;;;;;;;9.40;23.20;101345.33;2123510;84;21408;-80
2022/03/19 13:23:27;;;;;;;17.50;12.30;;;;;;;9.35;23.45;101352.39;2124195;84;20989;-81
2022/03/19 13:26:28;;;;;;;19.60;12.20;;;;;;;9.38;23.22;101352.16;2124144;84;20971;-82
2022/03/19 13:29:29;;;;;;;17.50;12.40;;;;;;;9.28;23.16;101347.25;2119307;84;21345;-80
2022/03/19 13:32:30;;;;;;;15.03;11.00;;;;;;;9.32;23.37;101345.70;2118576;84;21057;-83
2022/03/19 13:35:31;;;;;;;19.23;12.33;;;;;;;9.42;22.61;101351.52;2118859;84;21018;-82
2022/03/19 13:38:31;;;;;;;15.17;11.37;;;;;;;9.39;22.99;101348.74;2110244;84;21009;-80
2022/03/19 13:41:32;;;;;;;30.37;11.23;;;;;;;9.46;22.70;101343.06;2112201;84;20959;-82
2022/03/19 13:44:32;;;;;;;17.00;10.87;;;;;;;9.48;22.04;101346.66;2125580;84;20962;-84
2022/03/19 13:47:33;;;;;;;15.17;10.63;;;;;;;9.35;22.14;101344.17;2119135;84;20939;-83
2022/03/19 13:50:36;;;;;;;17.20;11.60;;;;;;;9.26;22.10;101339.34;2124923;84;20990;-83
2022/03/19 13:53:35;;;;;;;13.30;10.70;;;;;;;9.28;21.91;101344.64;2124361;84;21051;-81
2022/03/19 13:56:36;;;;;;;17.87;12.07;;;;;;;9.27;22.16;101340.23;2124080;84;21935;-81
2022/03/19 13:59:36;;;;;;;17.03;11.17;;;;;;;9.36;22.88;101338.14;2114844;84;21062;-83
2022/03/19 14:02:37;;;;;;;21.60;12.73;;;;;;;9.42;22.75;101334.58;2119474;84;21006;-81
2022/03/19 14:05:38;;;;;;;22.73;12.80;;;;;;;9.40;22.73;101333.59;2121611;84;20986;-82